Union, Connecticut
Current Conditions -  °F | °C
As of 11:26 PM on Tuesday 27 Jan 2015 (Local Time) from KIJD Reporting Station
Light Snow Light Snow  
Wind Chill:   Ceiling: 3300
Heat Index: 14°   Visibility: 6mi
Dew Point:   Wind: 12mph
Humidity: 67%   Direction: 320°NW
Pressure: 29.74"   Gusts: 18mph
Location:  41.9885°N, 72.2592°W
Report Text: KIJD 280426Z AUTO 32010G16KT 6SM -SN OVC033 M10/M15 A2974 RMK AO2 P0000 T11001150
Loading
Personal Weather Stations






























Interactive Weather Map New forecast layout! Learn more

10-Day Weather Forecast

Advertisements
Track Severe Weather on mobile